Time;durP1;ratioP1;P1;durP2;ratioP2;P2;SDS_P1;SDS_P2;PMS_P1;PMS_P2;Temp;Humidity;BMP_temperature;BMP_pressure;BME280_temperature;BME280_humidity;BME280_pressure;Samples;Min_cycle;Max_cycle;Signal;HPM_P1;HPM_P2
2022/05/21 00:00:41;;;;;;;1.80;1.00;;;23.70;70.10;;;;;;5045552;28;20168;-7
2022/05/21 00:03:09;;;;;;;1.20;0.90;;;23.70;69.50;;;;;;5063324;28;20186;-6
2022/05/21 00:05:35;;;;;;;1.10;0.90;;;23.70;69.80;;;;;;5063050;28;20155;-6
2022/05/21 00:08:04;;;;;;;0.93;0.80;;;23.70;69.60;;;;;;5070703;28;20176;-7
2022/05/21 00:10:31;;;;;;;1.53;0.80;;;23.60;69.50;;;;;;5065799;28;20178;-5
2022/05/21 00:12:58;;;;;;;1.10;1.00;;;23.60;69.50;;;;;;5083350;28;20167;-6
2022/05/21 00:15:27;;;;;;;1.27;0.90;;;23.70;69.50;;;;;;5062197;28;20203;-5
2022/05/21 00:17:53;;;;;;;1.67;1.00;;;23.60;69.50;;;;;;5041414;28;20168;-7
2022/05/21 00:23:13;;;;;;;0.90;0.90;;;23.60;69.60;;;;;;5060126;28;20175;-5
2022/05/21 00:25:39;;;;;;;0.80;0.80;;;23.60;69.60;;;;;;5060432;28;20442;-7
2022/05/21 00:28:06;;;;;;;0.80;0.80;;;23.60;69.60;;;;;;5042490;28;20549;-6
2022/05/21 00:30:32;;;;;;;0.80;0.80;;;23.60;69.60;;;;;;5074501;28;20181;-23
2022/05/21 00:32:58;;;;;;;1.37;0.87;;;23.60;69.80;;;;;;5078350;28;20187;-6
2022/05/21 00:35:24;;;;;;;1.33;1.10;;;23.60;69.60;;;;;;5061394;28;20179;-5
2022/05/21 00:37:50;;;;;;;1.53;1.00;;;23.60;69.60;;;;;;5079167;28;20194;-7
2022/05/21 00:40:16;;;;;;;1.13;1.00;;;23.60;69.70;;;;;;5079233;28;20195;-5
2022/05/21 00:42:48;;;;;;;1.10;0.93;;;23.50;69.70;;;;;;5079362;28;20455;-6
2022/05/21 00:45:14;;;;;;;0.90;0.90;;;23.50;69.70;;;;;;5062605;28;20611;-6
2022/05/21 00:47:40;;;;;;;0.90;0.90;;;23.50;69.70;;;;;;5062326;28;20175;-6
2022/05/21 00:50:08;;;;;;;1.10;1.00;;;23.50;69.80;;;;;;5062238;28;20187;-5
2022/05/21 00:52:36;;;;;;;0.93;0.93;;;23.50;69.80;;;;;;5058332;28;20180;-5
2022/05/21 00:55:10;;;;;;;0.90;0.90;;;23.50;69.80;;;;;;5059181;28;20186;-5
2022/05/21 00:57:40;;;;;;;1.23;1.10;;;23.50;69.90;;;;;;5041788;28;20245;-4
2022/05/21 01:00:21;;;;;;;1.13;0.90;;;23.50;70.00;;;;;;5059329;28;20188;-6
2022/05/21 01:02:53;;;;;;;0.97;0.90;;;23.40;69.90;;;;;;5059189;28;20168;-5
2022/05/21 01:05:21;;;;;;;0.93;0.80;;;23.40;70.00;;;;;;5059566;28;20732;-5
2022/05/21 01:07:56;;;;;;;0.90;0.90;;;23.40;70.10;;;;;;5058886;28;20183;-5
2022/05/21 01:10:27;;;;;;;1.20;1.07;;;23.40;70.10;;;;;;5042075;28;20511;-5
2022/05/21 01:12:54;;;;;;;1.50;0.93;;;23.30;70.10;;;;;;5058881;28;20577;-6
2022/05/21 01:15:27;;;;;;;0.90;0.90;;;23.40;70.30;;;;;;5058659;28;20179;-7
2022/05/21 01:17:55;;;;;;;1.03;0.83;;;23.30;70.20;;;;;;5058833;28;20163;-6
2022/05/21 01:20:23;;;;;;;1.00;0.97;;;23.30;70.30;;;;;;5059136;28;20619;-6
2022/05/21 01:22:52;;;;;;;1.00;0.90;;;23.30;70.30;;;;;;5058564;28;20172;-5
2022/05/21 01:25:23;;;;;;;1.00;0.90;;;23.30;70.40;;;;;;5041801;28;20463;-6
2022/05/21 01:27:53;;;;;;;0.90;0.90;;;23.30;70.40;;;;;;5058497;28;20190;-6
2022/05/21 01:30:22;;;;;;;1.00;0.90;;;23.20;70.40;;;;;;5058605;28;20341;-6
2022/05/21 01:32:49;;;;;;;1.30;0.93;;;23.30;70.60;;;;;;5041111;28;20191;-5
2022/05/21 01:35:16;;;;;;;0.90;0.90;;;23.20;70.50;;;;;;5040996;28;20440;-6
2022/05/21 01:37:42;;;;;;;0.93;0.83;;;23.20;70.50;;;;;;5041210;28;20165;-7
2022/05/21 01:40:10;;;;;;;0.80;0.80;;;23.20;70.60;;;;;;5058312;28;20206;-7
2022/05/21 01:42:36;;;;;;;1.20;0.97;;;23.20;70.60;;;;;;5058011;28;20179;-6
2022/05/21 01:45:03;;;;;;;0.80;0.80;;;23.20;70.70;;;;;;5058351;28;20463;-6
2022/05/21 01:47:31;;;;;;;0.80;0.80;;;23.10;70.60;;;;;;5057742;28;20259;-8
2022/05/21 01:49:57;;;;;;;1.10;1.00;;;23.10;70.70;;;;;;5058406;28;20435;-6
2022/05/21 01:52:22;;;;;;;1.90;1.00;;;23.10;70.70;;;;;;5058385;28;20258;-5
2022/05/21 01:54:48;;;;;;;1.00;0.90;;;23.10;70.70;;;;;;5040544;28;20202;-6
2022/05/21 01:57:14;;;;;;;1.00;1.00;;;23.10;70.70;;;;;;5041111;28;20455;-6
2022/05/21 01:59:40;;;;;;;1.07;0.97;;;23.10;70.80;;;;;;5040423;28;20214;-6
2022/05/21 02:02:06;;;;;;;1.10;1.00;;;23.10;70.80;;;;;;5056421;28;20182;-5
2022/05/21 02:04:32;;;;;;;0.80;0.80;;;23.10;70.90;;;;;;5057919;28;20175;-6
2022/05/21 02:06:58;;;;;;;0.90;0.90;;;23.00;70.80;;;;;;5040038;28;20175;-6
2022/05/21 02:09:24;;;;;;;1.47;0.90;;;23.10;70.90;;;;;;5057626;28;20183;-4
2022/05/21 02:11:50;;;;;;;0.90;0.90;;;23.00;70.80;;;;;;5040181;28;20190;-5
2022/05/21 02:14:16;;;;;;;1.57;0.90;;;23.00;70.90;;;;;;5057974;28;20462;-5
2022/05/21 02:16:42;;;;;;;0.70;0.70;;;23.00;70.80;;;;;;5040496;28;20595;-6
2022/05/21 02:19:08;;;;;;;0.90;0.80;;;23.00;71.00;;;;;;5057829;28;20274;-6
2022/05/21 02:21:37;;;;;;;0.80;0.80;;;23.00;71.10;;;;;;5039930;28;20175;-6
2022/05/21 02:24:04;;;;;;;1.00;0.90;;;23.00;71.00;;;;;;5040734;28;20172;-5
2022/05/21 02:26:37;;;;;;;0.90;0.90;;;23.00;71.00;;;;;;5057612;28;20233;-5
2022/05/21 02:29:03;;;;;;;0.90;0.80;;;23.00;71.00;;;;;;5040650;28;20269;-7
2022/05/21 02:31:29;;;;;;;0.93;0.90;;;23.00;71.00;;;;;;5057357;28;20188;-6
2022/05/21 02:33:55;;;;;;;1.10;1.00;;;22.90;71.00;;;;;;5057566;28;20200;-5
2022/05/21 02:39:25;;;;;;;0.70;0.70;;;22.90;70.90;;;;;;5040483;28;20209;-6
2022/05/21 02:41:51;;;;;;;0.80;0.80;;;22.90;70.90;;;;;;5057475;28;20321;-6
2022/05/21 02:44:16;;;;;;;1.03;0.90;;;22.90;70.90;;;;;;5057916;28;20181;-6
2022/05/21 02:46:42;;;;;;;1.10;1.00;;;22.90;70.90;;;;;;5057275;28;20262;-5
2022/05/21 02:49:08;;;;;;;0.93;0.93;;;22.90;70.90;;;;;;5039620;28;20183;-6
2022/05/21 02:51:34;;;;;;;1.00;0.90;;;22.90;70.80;;;;;;5057719;28;20455;-6
2022/05/21 02:54:00;;;;;;;1.13;0.97;;;22.80;70.70;;;;;;5040191;28;20209;-6
2022/05/21 02:56:26;;;;;;;1.10;1.00;;;22.80;70.70;;;;;;5039920;28;20242;-6
2022/05/21 02:58:51;;;;;;;0.90;0.90;;;22.80;70.70;;;;;;5057203;28;20188;-7
2022/05/21 03:01:17;;;;;;;0.93;0.93;;;22.80;70.70;;;;;;5039897;28;20686;-6
2022/05/21 03:03:43;;;;;;;1.13;1.00;;;22.80;70.70;;;;;;5039942;28;20205;-7
2022/05/21 03:06:09;;;;;;;1.00;1.00;;;22.80;70.70;;;;;;5039474;28;20578;-5
2022/05/21 03:11:19;;;;;;;0.80;0.80;;;22.80;70.70;;;;;;5057266;28;20190;-6
2022/05/21 03:13:44;;;;;;;0.90;0.90;;;22.80;70.70;;;;;;5040210;28;20211;-6
2022/05/21 03:16:11;;;;;;;1.17;1.00;;;22.80;70.60;;;;;;5056989;28;20176;-6
2022/05/21 03:18:37;;;;;;;0.97;0.97;;;22.80;70.70;;;;;;5039838;28;20209;-6
2022/05/21 03:21:03;;;;;;;0.80;0.80;;;22.80;70.60;;;;;;5057419;28;20255;-5
2022/05/21 03:23:28;;;;;;;0.80;0.80;;;22.80;70.70;;;;;;5039527;28;20184;-5
2022/05/21 03:25:54;;;;;;;1.43;1.00;;;22.70;70.50;;;;;;5057190;28;20254;-5
2022/05/21 03:28:20;;;;;;;0.80;0.80;;;22.70;70.50;;;;;;5040289;28;20171;-6
2022/05/21 03:30:47;;;;;;;0.90;0.90;;;22.70;70.50;;;;;;5039947;28;20165;-6
2022/05/21 03:33:13;;;;;;;0.90;0.90;;;22.70;70.40;;;;;;5039229;28;20195;-5
2022/05/21 03:35:41;;;;;;;1.00;0.90;;;22.70;70.30;;;;;;5040113;28;20179;-6
2022/05/21 03:38:08;;;;;;;0.90;0.90;;;22.70;70.30;;;;;;5056832;28;20452;-6
2022/05/21 03:40:35;;;;;;;0.83;0.83;;;22.70;70.30;;;;;;5056954;28;20523;-6
2022/05/21 03:43:01;;;;;;;0.90;0.90;;;22.70;70.30;;;;;;5057116;28;20242;-6
2022/05/21 03:45:27;;;;;;;1.80;0.87;;;22.70;70.20;;;;;;5056997;28;20254;-6
2022/05/21 03:47:53;;;;;;;1.10;0.90;;;22.70;70.20;;;;;;5039536;28;20456;-5
2022/05/21 03:50:22;;;;;;;1.73;0.87;;;22.70;70.20;;;;;;5039987;28;20182;-5
2022/05/21 03:52:47;;;;;;;1.00;0.90;;;22.70;70.10;;;;;;5043461;28;20194;-6
2022/05/21 03:55:13;;;;;;;1.30;1.00;;;22.70;70.10;;;;;;5060830;28;20172;-6
2022/05/21 03:57:39;;;;;;;1.10;1.00;;;22.60;70.00;;;;;;5043421;28;20756;-5
2022/05/21 04:00:09;;;;;;;1.40;1.10;;;22.70;70.00;;;;;;5043050;28;20209;-6
2022/05/21 04:02:36;;;;;;;1.20;1.10;;;22.60;69.90;;;;;;5060532;28;20148;-6
2022/05/21 04:05:06;;;;;;;0.93;0.90;;;22.60;69.80;;;;;;5060178;28;20243;-7
2022/05/21 04:07:32;;;;;;;1.13;1.00;;;22.60;69.80;;;;;;5060257;28;20257;-6
2022/05/21 04:09:57;;;;;;;1.53;1.07;;;22.60;69.70;;;;;;5042821;28;20703;-5
2022/05/21 04:12:23;;;;;;;0.90;0.90;;;22.60;69.70;;;;;;5060295;28;20164;-5
2022/05/21 04:14:49;;;;;;;0.90;0.90;;;22.60;69.60;;;;;;5058941;28;20190;-5
2022/05/21 04:17:16;;;;;;;1.20;1.00;;;22.60;69.60;;;;;;5042885;28;20237;-6
2022/05/21 04:19:42;;;;;;;1.50;1.20;;;22.60;69.60;;;;;;5059764;28;20498;-6
2022/05/21 04:22:09;;;;;;;1.87;1.00;;;22.60;69.60;;;;;;5059914;28;20589;-7
2022/05/21 04:24:35;;;;;;;1.20;1.10;;;22.60;69.60;;;;;;5059471;28;20154;-5
2022/05/21 04:27:02;;;;;;;1.50;1.13;;;22.60;69.60;;;;;;5060082;28;20208;-5
2022/05/21 04:29:28;;;;;;;1.30;1.00;;;22.60;69.60;;;;;;5059812;28;20172;-5
2022/05/21 04:31:54;;;;;;;1.00;1.00;;;22.50;69.50;;;;;;5042685;28;20572;-4
2022/05/21 04:34:19;;;;;;;1.17;1.07;;;22.60;69.50;;;;;;5059814;28;20276;-7
2022/05/21 04:36:45;;;;;;;1.10;1.00;;;22.50;69.40;;;;;;5059460;28;20295;-5
2022/05/21 04:39:11;;;;;;;1.20;1.10;;;22.50;69.40;;;;;;5059478;28;20292;-7
2022/05/21 04:41:37;;;;;;;1.47;1.00;;;22.50;69.40;;;;;;5059570;28;20265;-5
2022/05/21 04:44:03;;;;;;;2.00;1.20;;;22.50;69.40;;;;;;5041763;28;20648;-6
2022/05/21 04:46:30;;;;;;;1.53;1.20;;;22.50;69.40;;;;;;5041949;28;20200;-5
2022/05/21 04:48:56;;;;;;;1.20;1.10;;;22.50;69.30;;;;;;5059478;28;20182;-6
2022/05/21 04:51:21;;;;;;;1.20;1.10;;;22.50;69.30;;;;;;5059105;28;20265;-6
2022/05/21 04:53:48;;;;;;;1.13;1.00;;;22.50;69.30;;;;;;5042028;28;20172;-7
2022/05/21 04:56:13;;;;;;;1.90;1.17;;;22.50;69.30;;;;;;5060225;28;20190;-6
2022/05/21 04:58:39;;;;;;;1.37;1.10;;;22.50;69.30;;;;;;5076450;28;20206;-5
2022/05/21 05:01:06;;;;;;;1.30;1.20;;;22.50;69.20;;;;;;5059994;28;20565;-5
2022/05/21 05:03:33;;;;;;;1.20;1.10;;;22.50;69.30;;;;;;5047479;28;20278;-6
2022/05/21 05:06:00;;;;;;;1.13;1.03;;;22.50;69.20;;;;;;5058951;28;20228;-5
2022/05/21 05:08:26;;;;;;;1.70;1.30;;;22.50;69.20;;;;;;5041694;28;20183;-6
2022/05/21 05:10:52;;;;;;;1.93;1.20;;;22.50;69.20;;;;;;5059210;28;20157;-5
2022/05/21 05:13:20;;;;;;;1.40;1.30;;;22.50;69.20;;;;;;5041590;28;20223;-5
2022/05/21 05:15:46;;;;;;;1.70;1.20;;;22.50;69.20;;;;;;5041792;28;20215;-5
2022/05/21 05:18:18;;;;;;;1.20;1.10;;;22.50;69.20;;;;;;5058951;28;20172;-5
2022/05/21 05:20:45;;;;;;;1.40;1.30;;;22.40;69.00;;;;;;5058614;28;20147;-5
2022/05/21 05:23:11;;;;;;;2.30;1.20;;;22.40;69.00;;;;;;5058736;28;20163;-5
2022/05/21 05:25:37;;;;;;;1.33;1.23;;;22.40;69.00;;;;;;5058997;28;20218;-6
2022/05/21 05:28:05;;;;;;;1.73;1.23;;;22.40;69.00;;;;;;5057795;28;20195;-7
2022/05/21 05:30:32;;;;;;;2.47;1.50;;;22.40;69.00;;;;;;5049165;28;20183;-6
2022/05/21 05:32:57;;;;;;;1.80;1.27;;;22.40;69.00;;;;;;5061565;28;20190;-7
2022/05/21 05:35:23;;;;;;;1.43;1.10;;;22.40;69.50;;;;;;5078697;28;20316;-6
2022/05/21 05:37:49;;;;;;;1.30;1.20;;;22.40;68.90;;;;;;5078343;28;20262;-6
2022/05/21 05:40:18;;;;;;;1.60;1.30;;;22.40;68.90;;;;;;5044539;28;20297;-5
2022/05/21 05:42:44;;;;;;;1.57;1.27;;;22.40;68.80;;;;;;5060537;28;20206;-6
2022/05/21 05:45:13;;;;;;;1.40;1.30;;;22.40;68.70;;;;;;5061097;28;20271;-5
2022/05/21 05:47:38;;;;;;;1.40;1.30;;;22.40;68.60;;;;;;5060875;28;20176;-6
2022/05/21 05:50:07;;;;;;;1.33;1.23;;;22.50;68.60;;;;;;5078493;28;20320;-6
2022/05/21 05:52:33;;;;;;;1.33;1.23;;;22.50;68.50;;;;;;5078077;28;20171;-6
2022/05/21 05:54:59;;;;;;;1.80;1.37;;;22.50;68.50;;;;;;5060644;28;20268;-5
2022/05/21 05:57:24;;;;;;;1.57;1.20;;;22.50;68.40;;;;;;5060570;28;20270;-6
2022/05/21 05:59:51;;;;;;;1.40;1.23;;;22.40;68.30;;;;;;5077649;28;20180;-6
2022/05/21 06:05:13;;;;;;;1.47;1.30;;;22.40;68.30;;;;;;5077518;28;20235;-7
2022/05/21 06:07:47;;;;;;;1.40;1.30;;;22.40;68.30;;;;;;5078110;28;20174;-6
2022/05/21 06:10:16;;;;;;;1.80;1.23;;;22.40;68.20;;;;;;5060631;28;20206;-6
2022/05/21 06:12:42;;;;;;;1.57;1.30;;;22.40;68.10;;;;;;5077845;28;20151;-6
2022/05/21 06:15:09;;;;;;;1.20;1.10;;;22.40;68.00;;;;;;5059751;28;20170;-5
2022/05/21 06:17:38;;;;;;;1.47;1.37;;;22.40;68.00;;;;;;5077448;28;20257;-6
2022/05/21 06:20:06;;;;;;;2.30;1.10;;;22.40;67.90;;;;;;5077209;28;20182;-5
2022/05/21 06:22:32;;;;;;;1.77;1.50;;;22.50;68.00;;;;;;5060508;28;20175;-5
2022/05/21 06:24:59;;;;;;;1.43;1.20;;;22.50;67.80;;;;;;5077395;28;20171;-5
2022/05/21 06:27:27;;;;;;;1.20;1.10;;;22.50;67.60;;;;;;5077604;28;20561;-5
2022/05/21 06:29:53;;;;;;;1.77;1.20;;;22.50;67.40;;;;;;5077083;28;20195;-6
2022/05/21 06:32:19;;;;;;;1.43;1.30;;;22.50;67.40;;;;;;5077191;28;20166;-6
2022/05/21 06:34:45;;;;;;;1.30;1.20;;;22.50;67.40;;;;;;5059374;28;20575;-5
2022/05/21 06:37:12;;;;;;;2.00;1.20;;;22.50;67.30;;;;;;5059411;28;20186;-5
2022/05/21 06:39:39;;;;;;;2.33;1.30;;;22.50;67.30;;;;;;5076777;28;20171;-6
2022/05/21 06:42:06;;;;;;;1.40;1.30;;;22.50;67.20;;;;;;5077221;28;20182;-6
2022/05/21 06:44:32;;;;;;;1.47;1.20;;;22.50;67.20;;;;;;5059329;28;20172;-7
2022/05/21 06:46:58;;;;;;;1.50;1.20;;;22.50;67.20;;;;;;5074884;28;20671;-7
2022/05/21 06:49:26;;;;;;;1.20;1.10;;;22.50;67.10;;;;;;5051327;28;20206;-6
2022/05/21 06:51:54;;;;;;;1.80;1.30;;;22.50;67.00;;;;;;5076346;28;20171;-6
2022/05/21 06:54:21;;;;;;;1.90;1.40;;;22.50;67.00;;;;;;5059185;28;20229;-5
2022/05/21 06:56:47;;;;;;;1.40;1.30;;;22.50;67.00;;;;;;5059162;28;20178;-6
2022/05/21 06:59:13;;;;;;;1.43;1.30;;;22.50;66.90;;;;;;5068547;28;20179;-5
2022/05/21 07:01:40;;;;;;;4.10;1.27;;;22.50;66.90;;;;;;5056455;28;20179;-6
2022/05/21 07:04:09;;;;;;;1.30;1.20;;;22.50;66.90;;;;;;5056205;28;20171;-6
2022/05/21 07:09:21;;;;;;;1.70;1.30;;;22.50;66.70;;;;;;5076382;28;20488;-5
2022/05/21 07:11:58;;;;;;;1.30;1.20;;;22.50;66.70;;;;;;5058861;28;20695;-5
2022/05/21 07:14:24;;;;;;;1.40;1.30;;;22.50;66.70;;;;;;5076126;28;20158;-5
2022/05/21 07:16:50;;;;;;;1.47;1.37;;;22.50;66.70;;;;;;5058472;28;20184;-6
2022/05/21 07:19:15;;;;;;;1.47;1.20;;;22.50;66.70;;;;;;5076081;28;20236;-5
2022/05/21 07:21:48;;;;;;;1.53;1.33;;;22.50;66.70;;;;;;5075975;28;20179;-5
2022/05/21 07:24:13;;;;;;;1.50;1.40;;;22.50;66.70;;;;;;5076205;28;20263;-5
2022/05/21 07:26:39;;;;;;;1.37;1.20;;;22.50;66.60;;;;;;5078419;28;20183;-4
2022/05/21 07:29:06;;;;;;;2.17;1.30;;;22.50;66.60;;;;;;5062415;28;20212;-5
2022/05/21 07:31:38;;;;;;;2.03;1.20;;;22.50;66.70;;;;;;5062406;28;20175;-9
2022/05/21 07:34:05;;;;;;;2.33;1.40;;;22.50;66.90;;;;;;5079725;28;20179;-6
2022/05/21 07:36:31;;;;;;;2.43;1.33;;;22.50;67.90;;;;;;5079552;28;20163;-5
2022/05/21 07:38:56;;;;;;;1.97;1.57;;;22.50;68.60;;;;;;5062329;28;20197;-5
2022/05/21 07:41:32;;;;;;;1.80;1.50;;;22.50;69.00;;;;;;5062317;28;20317;-6
2022/05/21 07:43:58;;;;;;;2.20;1.60;;;22.50;68.70;;;;;;5061876;28;20193;-4
2022/05/21 07:46:23;;;;;;;2.93;1.40;;;22.50;68.70;;;;;;5079464;28;20183;-5
2022/05/21 07:48:49;;;;;;;1.97;1.53;;;22.50;68.90;;;;;;5079042;28;20203;-7
2022/05/21 07:51:17;;;;;;;2.17;1.37;;;22.50;69.10;;;;;;5061788;28;20199;-6
2022/05/21 07:53:42;;;;;;;1.67;1.57;;;22.50;69.30;;;;;;5079304;28;20152;-6
2022/05/21 07:56:11;;;;;;;2.23;1.43;;;22.50;69.00;;;;;;5061004;28;20189;-6
2022/05/21 07:58:38;;;;;;;3.07;2.00;;;22.50;68.90;;;;;;5078662;28;20269;-4
2022/05/21 08:01:05;;;;;;;3.57;1.80;;;22.50;68.60;;;;;;5060517;28;20182;-6
2022/05/21 08:03:31;;;;;;;4.40;1.80;;;22.50;68.30;;;;;;5060857;28;20183;-5
2022/05/21 08:05:57;;;;;;;4.37;2.00;;;22.50;68.20;;;;;;5078708;28;20185;-6
2022/05/21 08:08:23;;;;;;;5.67;2.43;;;22.50;68.00;;;;;;5078794;28;20186;-4
2022/05/21 08:10:56;;;;;;;3.53;1.97;;;22.50;67.60;;;;;;5077561;28;20299;-6
2022/05/21 08:13:22;;;;;;;3.60;2.00;;;22.50;67.50;;;;;;5078579;28;20728;-4
2022/05/21 08:15:48;;;;;;;3.90;2.20;;;22.50;67.20;;;;;;5061206;28;20172;-5
2022/05/21 08:18:14;;;;;;;3.57;2.50;;;22.50;67.30;;;;;;5061345;28;20185;-4
2022/05/21 08:20:41;;;;;;;2.80;2.50;;;22.50;66.20;;;;;;5060758;28;20639;-6
2022/05/21 08:28:41;;;;;;;5.13;3.10;;;22.50;65.90;;;;;;5078392;28;20486;-5
2022/05/21 08:31:07;;;;;;;5.43;2.57;;;22.40;65.50;;;;;;5060922;28;20582;-5
2022/05/21 08:33:33;;;;;;;5.40;2.70;;;22.50;65.60;;;;;;5077684;28;20592;-5
2022/05/21 08:35:59;;;;;;;4.93;2.60;;;22.40;65.50;;;;;;5078258;28;20174;-6
2022/05/21 08:38:24;;;;;;;5.93;2.63;;;22.40;65.40;;;;;;5059567;28;20179;-4
2022/05/21 08:41:06;;;;;;;10.13;3.20;;;22.40;65.30;;;;;;5059818;28;20171;-5
2022/05/21 08:43:53;;;;;;;14.93;3.53;;;22.50;66.40;;;;;;5078061;28;20174;-4
2022/05/21 08:46:22;;;;;;;11.07;4.00;;;22.40;66.20;;;;;;5059891;28;20687;-5
2022/05/21 08:48:54;;;;;;;17.03;3.90;;;22.50;66.40;;;;;;5060478;28;20466;-4
2022/05/21 08:51:26;;;;;;;11.37;4.13;;;22.50;65.90;;;;;;5077496;28;20167;-4
2022/05/21 08:53:52;;;;;;;13.50;3.83;;;22.60;66.20;;;;;;5077226;28;20167;-4
2022/05/21 08:56:19;;;;;;;13.90;4.17;;;22.60;64.90;;;;;;5077736;28;20837;-5
2022/05/21 08:58:52;;;;;;;20.97;4.30;;;22.70;64.50;;;;;;5077065;28;20186;-4
2022/05/21 09:01:24;;;;;;;12.13;3.90;;;22.70;64.20;;;;;;5077623;28;20698;-6
2022/05/21 09:03:53;;;;;;;13.40;4.23;;;22.70;64.10;;;;;;5060231;28;20218;-5
2022/05/21 09:06:19;;;;;;;13.87;4.13;;;22.70;64.60;;;;;;5060069;28;20175;-4
2022/05/21 09:08:53;;;;;;;14.83;3.90;;;22.70;64.80;;;;;;5060068;28;20644;-5
2022/05/21 09:11:50;;;;;;;16.40;4.20;;;22.70;65.50;;;;;;5060254;28;20182;-5
2022/05/21 09:14:42;;;;;;;8.00;3.90;;;22.70;66.10;;;;;;5059077;28;20765;-4
2022/05/21 09:17:24;;;;;;;15.00;4.47;;;22.70;66.50;;;;;;5076888;28;20176;-6
2022/05/21 09:19:57;;;;;;;9.80;3.80;;;22.70;66.80;;;;;;5076489;28;20232;-4
2022/05/21 09:22:23;;;;;;;12.63;4.00;;;22.70;67.70;;;;;;5059276;28;20640;-5
2022/05/21 09:24:55;;;;;;;10.83;4.17;;;22.60;68.00;;;;;;5058902;28;20179;-5
2022/05/21 09:27:33;;;;;;;9.27;3.60;;;22.60;68.10;;;;;;5057427;28;20183;-5
2022/05/21 09:30:18;;;;;;;12.97;4.37;;;22.60;67.80;;;;;;5076356;28;20214;-5
2022/05/21 09:32:48;;;;;;;10.33;3.70;;;22.60;67.80;;;;;;5059278;28;20184;-5
2022/05/21 09:35:23;;;;;;;9.53;4.00;;;22.60;67.80;;;;;;5058456;28;20179;-6
2022/05/21 09:37:50;;;;;;;10.63;4.10;;;22.60;67.70;;;;;;5076285;28;20147;-7
2022/05/21 09:40:35;;;;;;;9.10;4.10;;;22.60;67.60;;;;;;5076585;28;20167;-6
2022/05/21 09:46:30;;;;;;;10.97;3.97;;;22.50;66.90;;;;;;5076226;28;20244;-5
2022/05/21 09:49:17;;;;;;;6.77;3.47;;;22.60;66.80;;;;;;5076242;28;20655;-6
2022/05/21 09:52:01;;;;;;;8.67;3.90;;;22.60;66.50;;;;;;5076236;28;20160;-5
2022/05/21 09:54:35;;;;;;;9.97;3.63;;;22.60;66.10;;;;;;5058239;28;20163;-4
2022/05/21 09:57:01;;;;;;;11.23;3.97;;;22.60;65.70;;;;;;5058351;28;20190;-5
2022/05/21 09:59:33;;;;;;;8.73;3.67;;;22.60;65.20;;;;;;5058430;28;20179;-4
2022/05/21 10:02:22;;;;;;;5.90;3.43;;;22.70;64.80;;;;;;5075660;28;20183;-5
2022/05/21 10:04:55;;;;;;;6.50;3.57;;;22.70;64.40;;;;;;5057521;28;20203;-4
2022/05/21 10:10:58;;;;;;;8.47;3.67;;;22.80;63.70;;;;;;5074954;28;20681;-6
2022/05/21 10:13:31;;;;;;;7.13;3.47;;;22.90;63.10;;;;;;5058396;28;20177;-6
2022/05/21 10:16:18;;;;;;;8.03;3.80;;;22.90;62.10;;;;;;5074911;28;20209;-5
2022/05/21 10:18:54;;;;;;;8.97;3.77;;;23.00;61.70;;;;;;5074924;28;20182;-4
2022/05/21 10:21:31;;;;;;;7.20;3.30;;;23.10;61.10;;;;;;5057535;28;20190;-4
2022/05/21 10:24:23;;;;;;;6.23;3.40;;;23.10;60.90;;;;;;5058015;28;20274;-7
2022/05/21 10:27:18;;;;;;;7.33;3.50;;;23.10;60.40;;;;;;5056944;28;20190;-4
2022/05/21 10:29:56;;;;;;;5.17;3.30;;;23.20;60.30;;;;;;5068936;28;20298;-5
2022/05/21 10:32:52;;;;;;;7.40;3.30;;;23.20;60.00;;;;;;5075064;28;20167;-3
2022/05/21 10:35:39;;;;;;;5.90;3.27;;;23.20;59.90;;;;;;5067988;28;20178;-6
2022/05/21 10:38:48;;;;;;;7.07;3.50;;;23.30;59.80;;;;;;5057543;28;20220;-6
2022/05/21 10:41:51;;;;;;;6.50;3.40;;;23.30;59.70;;;;;;5056905;28;20175;-6
2022/05/21 10:44:28;;;;;;;6.70;3.60;;;23.30;59.60;;;;;;5074091;28;20236;-4
2022/05/21 10:47:09;;;;;;;7.70;3.50;;;23.30;59.50;;;;;;5056815;28;20213;-6
2022/05/21 10:50:03;;;;;;;5.63;3.00;;;23.30;59.40;;;;;;5036794;28;20195;-5
2022/05/21 10:52:57;;;;;;;9.60;3.13;;;23.30;59.40;;;;;;5069637;28;20309;-5
2022/05/21 10:55:35;;;;;;;6.83;3.20;;;23.30;59.30;;;;;;5037591;28;20191;-4
2022/05/21 10:58:34;;;;;;;8.13;3.30;;;23.40;59.20;;;;;;5054026;28;20621;-5
2022/05/21 11:01:27;;;;;;;7.70;3.20;;;23.40;59.20;;;;;;5073106;28;20179;-5
2022/05/21 11:04:12;;;;;;;7.63;3.20;;;23.40;59.10;;;;;;5069735;28;20232;-3
2022/05/21 11:07:35;;;;;;;7.03;3.20;;;23.40;59.00;;;;;;5074315;28;20171;-5
2022/05/21 11:10:17;;;;;;;7.00;3.10;;;23.40;59.00;;;;;;5026825;28;20311;-4
2022/05/21 11:12:52;;;;;;;6.30;3.33;;;23.40;58.90;;;;;;5049409;28;20175;-5
2022/05/21 11:15:39;;;;;;;8.27;3.10;;;23.50;58.90;;;;;;5048276;28;20248;-5
2022/05/21 11:18:32;;;;;;;6.53;3.33;;;23.50;58.80;;;;;;5065918;28;20174;-4
2022/05/21 11:21:26;;;;;;;7.93;3.37;;;23.50;58.80;;;;;;5054375;28;20188;-5
2022/05/21 11:23:58;;;;;;;7.90;3.33;;;23.50;58.80;;;;;;5030254;28;20662;-4
2022/05/21 11:26:43;;;;;;;7.03;3.13;;;23.50;58.90;;;;;;5052481;28;20479;-6
2022/05/21 11:29:47;;;;;;;7.67;3.27;;;23.50;59.00;;;;;;5053986;28;20205;-5
2022/05/21 11:38:27;;;;;;;6.27;3.17;;;23.50;58.90;;;;;;5052033;28;20449;-5
2022/05/21 11:47:09;;;;;;;6.73;3.20;;;23.40;58.60;;;;;;5047028;28;20455;-4
2022/05/21 11:49:43;;;;;;;4.77;2.80;;;23.40;58.60;;;;;;5047364;28;20290;-4
2022/05/21 11:52:26;;;;;;;4.73;2.77;;;23.40;58.70;;;;;;5046360;28;20259;-4
2022/05/21 11:55:11;;;;;;;6.87;3.00;;;23.40;58.70;;;;;;5046297;28;20459;-5
2022/05/21 11:57:49;;;;;;;4.93;2.63;;;23.40;58.70;;;;;;5046942;28;20173;-5
2022/05/21 12:00:15;;;;;;;6.53;2.97;;;23.40;58.70;;;;;;5043585;28;20172;-5
2022/05/21 12:02:53;;;;;;;5.97;3.03;;;23.40;58.70;;;;;;5044241;28;20172;-5
2022/05/21 12:05:34;;;;;;;5.80;2.67;;;23.40;58.70;;;;;;5045859;28;20176;-5
2022/05/21 12:08:30;;;;;;;5.70;2.80;;;23.40;58.70;;;;;;5044437;28;20176;-5
2022/05/21 12:11:30;;;;;;;5.30;2.67;;;23.40;58.70;;;;;;5046149;28;20269;-5
2022/05/21 12:14:19;;;;;;;4.87;2.97;;;23.40;58.70;;;;;;5009486;28;20178;-4
2022/05/21 12:16:49;;;;;;;6.60;2.90;;;23.40;58.70;;;;;;5032972;28;20161;-5
2022/05/21 12:19:44;;;;;;;8.43;2.90;;;23.40;58.70;;;;;;5049527;28;20248;-5
2022/05/21 12:22:10;;;;;;;4.37;2.60;;;23.40;58.60;;;;;;5023494;28;20184;-6
2022/05/21 12:24:41;;;;;;;5.97;3.27;;;23.40;58.70;;;;;;5048054;28;20176;-5
2022/05/21 12:27:24;;;;;;;6.60;3.20;;;23.40;58.70;;;;;;5050170;28;20180;-6
2022/05/21 12:29:59;;;;;;;6.23;2.93;;;23.40;58.60;;;;;;5050309;28;20227;-5
2022/05/21 12:32:26;;;;;;;7.90;3.20;;;23.40;58.50;;;;;;5049683;28;20170;-6
2022/05/21 12:35:10;;;;;;;8.17;3.00;;;23.40;58.50;;;;;;5032857;28;20265;-4
2022/05/21 12:37:44;;;;;;;5.87;2.90;;;23.40;58.50;;;;;;5049984;28;20171;-6
2022/05/21 12:40:29;;;;;;;5.50;2.77;;;23.40;58.50;;;;;;5048646;28;20192;-5
2022/05/21 12:43:17;;;;;;;4.40;2.70;;;23.40;58.50;;;;;;5032876;28;20183;-4
2022/05/21 12:45:48;;;;;;;4.10;2.60;;;23.50;58.40;;;;;;5032239;28;20204;-6
2022/05/21 12:48:32;;;;;;;5.07;3.03;;;23.50;58.30;;;;;;5048866;28;20181;-4
2022/05/21 12:51:05;;;;;;;6.20;2.80;;;23.50;58.30;;;;;;5049358;28;20184;-6
2022/05/21 12:53:43;;;;;;;5.23;2.97;;;23.50;58.20;;;;;;5050372;28;20383;-5
2022/05/21 12:56:12;;;;;;;6.17;2.77;;;23.50;58.20;;;;;;5048812;28;20486;-4
2022/05/21 12:58:39;;;;;;;7.43;2.77;;;23.50;58.20;;;;;;5048873;28;20194;-5
2022/05/21 13:01:05;;;;;;;7.10;3.03;;;23.50;58.00;;;;;;5049165;28;20164;-4
2022/05/21 13:03:35;;;;;;;7.00;3.20;;;23.50;58.00;;;;;;5050136;28;20202;-5
2022/05/21 13:06:08;;;;;;;6.63;3.10;;;23.50;58.00;;;;;;5047307;28;20175;-4
2022/05/21 13:08:38;;;;;;;4.57;2.77;;;23.50;57.90;;;;;;5049080;28;20211;-5
2022/05/21 13:11:24;;;;;;;7.50;2.87;;;23.50;57.90;;;;;;5050011;28;20269;-3
2022/05/21 13:14:12;;;;;;;6.10;2.90;;;23.50;57.80;;;;;;5047510;28;20171;-4
2022/05/21 13:16:50;;;;;;;5.60;2.83;;;23.50;57.70;;;;;;5048981;28;20193;-4
2022/05/21 13:19:45;;;;;;;5.30;2.80;;;23.50;57.80;;;;;;5049422;28;20172;-5
2022/05/21 13:22:32;;;;;;;6.07;2.37;;;23.50;58.20;;;;;;5048330;28;20229;-5
2022/05/21 13:25:04;;;;;;;5.53;2.97;;;23.50;57.70;;;;;;5047696;28;20311;-4
2022/05/21 13:27:44;;;;;;;5.07;2.60;;;23.50;58.20;;;;;;5048481;28;20179;-5
2022/05/21 13:30:14;;;;;;;3.30;2.33;;;23.50;57.80;;;;;;5033632;28;20202;-5
2022/05/21 13:32:40;;;;;;;5.17;2.80;;;23.50;57.70;;;;;;5055777;28;20439;-5
2022/05/21 13:35:21;;;;;;;5.67;2.87;;;23.50;57.70;;;;;;5055255;28;20184;-4
2022/05/21 13:37:49;;;;;;;5.70;2.70;;;23.50;57.60;;;;;;5055899;28;20259;-4
2022/05/21 13:40:20;;;;;;;4.80;2.70;;;23.60;57.60;;;;;;5054727;28;20173;-5
2022/05/21 13:42:49;;;;;;;4.90;2.67;;;23.60;57.60;;;;;;5055632;28;20199;-5
2022/05/21 13:45:20;;;;;;;5.37;2.73;;;23.60;57.50;;;;;;5055290;28;20261;-4
2022/05/21 13:47:51;;;;;;;4.27;2.70;;;23.60;57.40;;;;;;5055132;28;20545;-6
2022/05/21 13:50:24;;;;;;;3.83;2.53;;;23.60;57.40;;;;;;5037249;28;20208;-5
2022/05/21 13:52:53;;;;;;;3.80;2.60;;;23.60;57.40;;;;;;5038423;28;20213;-7
2022/05/21 13:55:19;;;;;;;4.70;2.77;;;23.60;57.50;;;;;;5055158;28;20175;-3